createdAt,value
2023-02-16T07:04:00.322Z,124.20
2023-02-16T07:07:03.072Z,69.35
2023-02-16T07:10:07.293Z,73.82
2023-02-16T07:13:10.180Z,92.00
2023-02-16T07:16:12.715Z,94.37
2023-02-16T07:19:16.852Z,68.78
2023-02-16T07:22:19.183Z,81.78
2023-02-16T07:25:21.960Z,81.85
2023-02-16T07:28:24.347Z,78.40
2023-02-16T07:31:27.106Z,95.85
2023-02-16T07:34:31.168Z,69.32
2023-02-16T07:37:33.937Z,111.90
2023-02-16T07:40:36.276Z,71.68
2023-02-16T07:43:39.326Z,65.70
2023-02-16T07:46:41.744Z,69.55
2023-02-16T07:49:45.754Z,89.32
2023-02-16T07:52:48.133Z,80.53
2023-02-16T07:55:50.760Z,98.32
2023-02-16T07:58:53.380Z,90.30
2023-02-16T08:01:56.181Z,88.90
2023-02-16T08:05:00.407Z,94.60
2023-02-16T08:08:02.993Z,101.18
2023-02-16T08:11:09.803Z,83.60
2023-02-16T08:14:12.255Z,86.57
2023-02-16T08:17:14.942Z,96.12
2023-02-16T08:20:18.981Z,88.32
2023-02-16T08:23:21.651Z,73.15
2023-02-16T08:26:27.280Z,64.87
2023-02-16T08:29:30.399Z,77.03
2023-02-16T08:32:33.312Z,64.45
2023-02-16T08:35:39.311Z,67.70
2023-02-16T08:38:43.329Z,72.22
2023-02-16T08:41:46.623Z,66.40
2023-02-16T08:44:49.117Z,78.12
2023-02-16T08:47:53.203Z,74.75
2023-02-16T08:50:56.971Z,75.03
2023-02-16T08:57:03.091Z,71.22
2023-02-16T09:00:25.962Z,63.95
2023-02-16T09:03:28.428Z,73.70
2023-02-16T09:06:33.077Z,79.53
2023-02-16T09:09:35.531Z,61.28
2023-02-16T09:12:38.268Z,68.20
2023-02-16T09:15:42.001Z,71.78
2023-02-16T09:18:45.000Z,71.70
2023-02-16T09:21:50.594Z,69.47
2023-02-16T09:24:53.262Z,94.70
2023-02-16T09:27:55.711Z,61.17
2023-02-16T09:30:58.810Z,76.75
2023-02-16T09:34:02.816Z,75.85
2023-02-16T09:37:06.966Z,70.55
2023-02-16T09:40:11.805Z,75.18
2023-02-16T09:43:18.108Z,75.80
2023-02-16T09:46:22.622Z,77.30
2023-02-16T09:49:32.632Z,81.35
2023-02-16T09:52:37.276Z,71.75
2023-02-16T09:55:41.948Z,73.57
2023-02-16T09:58:46.920Z,94.45
2023-02-16T10:01:52.362Z,89.87
2023-02-16T10:05:02.140Z,72.90
2023-02-16T10:08:08.065Z,60.70
2023-02-16T10:11:32.174Z,71.78
2023-02-16T10:14:37.414Z,66.87
2023-02-16T10:17:41.926Z,65.60
2023-02-16T10:20:45.675Z,68.07
2023-02-16T10:26:54.294Z,55.00
2023-02-16T10:29:57.044Z,57.33
2023-02-16T10:33:03.728Z,55.97
2023-02-16T10:36:14.859Z,53.05
2023-02-16T10:39:21.444Z,48.97
2023-02-16T10:42:27.906Z,52.62
2023-02-16T10:45:31.983Z,51.75
2023-02-16T10:48:34.743Z,51.83
2023-02-16T10:51:37.647Z,71.57
2023-02-16T10:54:42.092Z,53.73
2023-02-16T10:57:44.527Z,53.72
2023-02-16T11:00:51.795Z,60.40
2023-02-16T11:03:54.342Z,54.65
2023-02-16T11:07:03.281Z,56.42
2023-02-16T11:10:19.762Z,50.67
2023-02-16T11:13:28.372Z,50.03
2023-02-16T11:16:30.871Z,56.90
2023-02-16T11:19:33.551Z,59.15
2023-02-16T11:22:37.145Z,56.75
2023-02-16T11:25:41.492Z,62.13
2023-02-16T11:31:46.840Z,51.22
2023-02-16T11:34:49.843Z,48.47
2023-02-16T11:37:52.535Z,75.77
2023-02-16T11:40:56.300Z,46.65
2023-02-16T11:43:59.096Z,42.50
2023-02-16T11:47:03.856Z,60.10
2023-02-16T11:50:21.564Z,45.60
2023-02-16T11:53:24.854Z,43.95
2023-02-16T11:56:29.665Z,51.25
2023-02-16T11:59:34.868Z,49.22
2023-02-16T12:03:00.232Z,59.22
2023-02-16T12:06:17.477Z,45.75
2023-02-16T12:09:24.511Z,42.40
2023-02-16T12:12:32.110Z,53.42
2023-02-16T12:15:36.944Z,59.45
2023-02-16T12:18:42.180Z,40.90
2023-02-16T12:21:46.710Z,42.90
2023-02-16T12:24:54.782Z,36.03
2023-02-16T12:28:01.699Z,49.75
2023-02-16T12:31:09.654Z,44.67
2023-02-16T12:34:17.771Z,37.17
2023-02-16T12:37:22.499Z,42.35
2023-02-16T12:40:30.179Z,38.85
2023-02-16T12:43:36.446Z,41.67
2023-02-16T12:46:40.462Z,45.20
2023-02-16T12:49:47.580Z,41.70
2023-02-16T12:52:52.777Z,49.95
2023-02-16T12:55:56.560Z,35.20
2023-02-16T12:59:07.829Z,36.67
2023-02-16T13:02:14.444Z,39.00
2023-02-16T13:05:21.147Z,50.10
2023-02-16T13:08:27.020Z,51.53
2023-02-16T13:11:32.929Z,36.00
2023-02-16T13:14:40.576Z,60.33
2023-02-16T13:17:46.205Z,36.35
2023-02-16T13:20:50.962Z,43.10
2023-02-16T13:23:58.047Z,49.38
2023-02-16T13:27:11.928Z,39.65
2023-02-16T13:30:40.372Z,39.95
2023-02-16T13:33:51.574Z,44.63
2023-02-16T13:37:05.050Z,39.75
2023-02-16T13:40:23.709Z,57.60
2023-02-16T13:43:31.788Z,39.53
2023-02-16T13:46:37.800Z,34.88
2023-02-16T13:49:43.921Z,36.22
2023-02-16T13:52:46.699Z,42.78
2023-02-16T13:55:50.646Z,37.97
2023-02-16T13:58:53.410Z,37.85
2023-02-16T14:01:57.558Z,44.55
2023-02-16T14:05:02.050Z,38.55
2023-02-16T14:08:18.715Z,32.55
2023-02-16T14:11:21.730Z,39.17
2023-02-16T14:14:27.759Z,38.55
2023-02-16T14:17:32.901Z,36.72
2023-02-16T14:20:35.351Z,31.37
2023-02-16T14:23:38.121Z,35.67
2023-02-16T14:26:56.522Z,34.83
2023-02-16T14:29:59.798Z,40.47
2023-02-16T14:33:07.526Z,40.97
2023-02-16T14:36:14.176Z,49.38
2023-02-16T14:39:16.924Z,47.85
2023-02-16T14:42:27.512Z,42.20
2023-02-16T14:46:04.253Z,73.60
2023-02-16T14:49:43.769Z,48.60
2023-02-16T14:53:00.539Z,41.78
2023-02-16T14:56:28.431Z,53.70
2023-02-16T14:59:32.307Z,53.45
2023-02-16T15:02:35.870Z,53.13
2023-02-16T15:05:38.236Z,59.90
2023-02-16T15:08:48.578Z,57.45
2023-02-16T15:12:10.713Z,54.83
2023-02-16T15:15:18.660Z,56.78
2023-02-16T15:18:22.439Z,79.43
2023-02-16T15:24:32.880Z,61.72
2023-02-16T15:27:35.607Z,58.00
2023-02-16T15:30:39.141Z,91.05
2023-02-16T15:33:42.474Z,78.70
2023-02-16T15:36:45.085Z,87.95
2023-02-16T15:40:08.619Z,77.05
2023-02-16T15:43:19.067Z,64.07
2023-02-16T15:46:26.638Z,60.63
2023-02-16T15:49:30.410Z,62.67
2023-02-16T15:55:41.319Z,65.35
2023-02-16T15:58:43.970Z,74.55
2023-02-16T16:01:47.337Z,92.90
